sensor_id;sensor_type;location;lat;lon;timestamp;P1;durP1;ratioP1;P2;durP2;ratioP2
32475;SDS011;18929;48.008;10.882;2022-07-29T00:01:34;4.60;;;1.25;;
32475;SDS011;18929;48.008;10.882;2022-07-29T00:04:01;6.30;;;1.20;;
32475;SDS011;18929;48.008;10.882;2022-07-29T00:06:28;4.00;;;1.13;;
32475;SDS011;18929;48.008;10.882;2022-07-29T00:08:55;5.32;;;1.25;;
32475;SDS011;18929;48.008;10.882;2022-07-29T00:11:22;8.07;;;1.05;;
32475;SDS011;18929;48.008;10.882;2022-07-29T00:13:49;5.22;;;1.30;;
32475;SDS011;18929;48.008;10.882;2022-07-29T00:16:17;5.25;;;1.02;;
32475;SDS011;18929;48.008;10.882;2022-07-29T00:18:44;3.92;;;1.13;;
32475;SDS011;18929;48.008;10.882;2022-07-29T00:21:11;4.03;;;1.40;;
32475;SDS011;18929;48.008;10.882;2022-07-29T00:23:38;3.30;;;1.20;;
32475;SDS011;18929;48.008;10.882;2022-07-29T00:26:05;6.05;;;1.20;;
32475;SDS011;18929;48.008;10.882;2022-07-29T00:28:32;2.58;;;1.10;;
32475;SDS011;18929;48.008;10.882;2022-07-29T00:31:00;3.65;;;1.10;;
32475;SDS011;18929;48.008;10.882;2022-07-29T00:33:28;3.58;;;1.13;;
32475;SDS011;18929;48.008;10.882;2022-07-29T00:35:55;2.38;;;0.90;;
32475;SDS011;18929;48.008;10.882;2022-07-29T00:38:21;3.58;;;1.00;;
32475;SDS011;18929;48.008;10.882;2022-07-29T00:40:48;6.93;;;1.25;;
32475;SDS011;18929;48.008;10.882;2022-07-29T00:43:16;3.38;;;1.27;;
32475;SDS011;18929;48.008;10.882;2022-07-29T00:45:44;2.67;;;0.90;;
32475;SDS011;18929;48.008;10.882;2022-07-29T00:48:11;1.75;;;0.90;;
32475;SDS011;18929;48.008;10.882;2022-07-29T00:50:39;3.88;;;1.10;;
32475;SDS011;18929;48.008;10.882;2022-07-29T00:53:07;2.80;;;0.95;;
32475;SDS011;18929;48.008;10.882;2022-07-29T00:55:35;2.45;;;1.00;;
32475;SDS011;18929;48.008;10.882;2022-07-29T00:58:02;2.70;;;1.00;;
32475;SDS011;18929;48.008;10.882;2022-07-29T01:00:29;3.67;;;0.85;;
32475;SDS011;18929;48.008;10.882;2022-07-29T01:02:57;3.67;;;1.08;;
32475;SDS011;18929;48.008;10.882;2022-07-29T01:05:25;4.05;;;0.90;;
32475;SDS011;18929;48.008;10.882;2022-07-29T01:07:55;4.25;;;1.30;;
32475;SDS011;18929;48.008;10.882;2022-07-29T01:10:24;1.88;;;1.15;;
32475;SDS011;18929;48.008;10.882;2022-07-29T01:12:51;2.90;;;1.05;;
32475;SDS011;18929;48.008;10.882;2022-07-29T01:15:21;5.10;;;1.10;;
32475;SDS011;18929;48.008;10.882;2022-07-29T01:17:50;6.82;;;1.02;;
32475;SDS011;18929;48.008;10.882;2022-07-29T01:20:25;2.75;;;0.85;;
32475;SDS011;18929;48.008;10.882;2022-07-29T01:26:16;3.88;;;0.98;;
32475;SDS011;18929;48.008;10.882;2022-07-29T01:29:07;4.88;;;1.08;;
32475;SDS011;18929;48.008;10.882;2022-07-29T01:31:43;3.70;;;0.80;;
32475;SDS011;18929;48.008;10.882;2022-07-29T01:34:16;2.97;;;1.08;;
32475;SDS011;18929;48.008;10.882;2022-07-29T01:36:55;1.67;;;0.80;;
32475;SDS011;18929;48.008;10.882;2022-07-29T01:39:30;1.88;;;1.00;;
32475;SDS011;18929;48.008;10.882;2022-07-29T01:42:01;2.70;;;0.90;;
32475;SDS011;18929;48.008;10.882;2022-07-29T01:44:37;1.92;;;0.80;;
32475;SDS011;18929;48.008;10.882;2022-07-29T01:47:12;2.05;;;0.93;;
32475;SDS011;18929;48.008;10.882;2022-07-29T01:49:45;1.02;;;0.60;;
32475;SDS011;18929;48.008;10.882;2022-07-29T01:52:19;1.58;;;0.88;;
32475;SDS011;18929;48.008;10.882;2022-07-29T01:54:48;2.63;;;0.90;;
32475;SDS011;18929;48.008;10.882;2022-07-29T01:57:20;1.88;;;0.80;;
32475;SDS011;18929;48.008;10.882;2022-07-29T01:59:52;0.90;;;0.80;;
32475;SDS011;18929;48.008;10.882;2022-07-29T02:02:21;4.22;;;0.95;;
32475;SDS011;18929;48.008;10.882;2022-07-29T02:04:49;2.63;;;0.88;;
32475;SDS011;18929;48.008;10.882;2022-07-29T02:07:19;1.75;;;0.77;;
32475;SDS011;18929;48.008;10.882;2022-07-29T02:09:49;1.63;;;0.90;;
32475;SDS011;18929;48.008;10.882;2022-07-29T02:12:17;2.78;;;1.00;;
32475;SDS011;18929;48.008;10.882;2022-07-29T02:14:47;1.85;;;0.80;;
32475;SDS011;18929;48.008;10.882;2022-07-29T02:17:19;1.88;;;0.90;;
32475;SDS011;18929;48.008;10.882;2022-07-29T02:19:49;1.70;;;0.77;;
32475;SDS011;18929;48.008;10.882;2022-07-29T02:22:17;1.42;;;0.90;;
32475;SDS011;18929;48.008;10.882;2022-07-29T02:24:45;1.77;;;0.80;;
32475;SDS011;18929;48.008;10.882;2022-07-29T02:27:14;3.70;;;0.80;;
32475;SDS011;18929;48.008;10.882;2022-07-29T02:29:43;2.25;;;0.75;;
32475;SDS011;18929;48.008;10.882;2022-07-29T02:32:12;1.27;;;0.70;;
32475;SDS011;18929;48.008;10.882;2022-07-29T02:34:41;3.42;;;0.90;;
32475;SDS011;18929;48.008;10.882;2022-07-29T02:37:10;2.92;;;0.88;;
32475;SDS011;18929;48.008;10.882;2022-07-29T02:39:38;4.43;;;0.90;;
32475;SDS011;18929;48.008;10.882;2022-07-29T02:42:10;1.80;;;0.80;;
32475;SDS011;18929;48.008;10.882;2022-07-29T02:44:39;2.13;;;1.00;;
32475;SDS011;18929;48.008;10.882;2022-07-29T02:47:07;2.53;;;0.70;;
32475;SDS011;18929;48.008;10.882;2022-07-29T02:49:43;1.63;;;0.77;;
32475;SDS011;18929;48.008;10.882;2022-07-29T02:52:20;1.73;;;0.80;;
32475;SDS011;18929;48.008;10.882;2022-07-29T02:57:21;1.27;;;0.68;;
32475;SDS011;18929;48.008;10.882;2022-07-29T02:59:56;2.20;;;0.93;;
32475;SDS011;18929;48.008;10.882;2022-07-29T03:02:28;0.85;;;0.60;;
32475;SDS011;18929;48.008;10.882;2022-07-29T03:05:00;1.38;;;0.70;;
32475;SDS011;18929;48.008;10.882;2022-07-29T03:07:29;4.35;;;1.00;;
32475;SDS011;18929;48.008;10.882;2022-07-29T03:09:57;3.90;;;1.05;;
32475;SDS011;18929;48.008;10.882;2022-07-29T03:12:25;2.83;;;0.75;;
32475;SDS011;18929;48.008;10.882;2022-07-29T03:14:53;1.25;;;0.95;;
32475;SDS011;18929;48.008;10.882;2022-07-29T03:17:20;2.25;;;1.00;;
32475;SDS011;18929;48.008;10.882;2022-07-29T03:19:48;1.63;;;0.65;;
32475;SDS011;18929;48.008;10.882;2022-07-29T03:22:17;3.05;;;0.88;;
32475;SDS011;18929;48.008;10.882;2022-07-29T03:24:45;2.40;;;0.70;;
32475;SDS011;18929;48.008;10.882;2022-07-29T03:27:12;1.55;;;0.90;;
32475;SDS011;18929;48.008;10.882;2022-07-29T03:29:39;3.80;;;0.90;;
32475;SDS011;18929;48.008;10.882;2022-07-29T03:32:06;1.50;;;0.73;;
32475;SDS011;18929;48.008;10.882;2022-07-29T03:34:34;2.70;;;1.10;;
32475;SDS011;18929;48.008;10.882;2022-07-29T03:37:03;3.85;;;1.13;;
32475;SDS011;18929;48.008;10.882;2022-07-29T03:39:33;6.90;;;1.25;;
32475;SDS011;18929;48.008;10.882;2022-07-29T03:42:02;3.67;;;1.00;;
32475;SDS011;18929;48.008;10.882;2022-07-29T03:44:33;2.85;;;0.93;;
32475;SDS011;18929;48.008;10.882;2022-07-29T03:47:01;7.25;;;0.80;;
32475;SDS011;18929;48.008;10.882;2022-07-29T03:49:30;6.38;;;1.00;;
32475;SDS011;18929;48.008;10.882;2022-07-29T03:51:58;9.35;;;1.30;;
32475;SDS011;18929;48.008;10.882;2022-07-29T03:54:26;6.78;;;0.90;;
32475;SDS011;18929;48.008;10.882;2022-07-29T03:56:54;4.00;;;1.05;;
32475;SDS011;18929;48.008;10.882;2022-07-29T03:59:25;6.18;;;1.35;;
32475;SDS011;18929;48.008;10.882;2022-07-29T04:01:53;4.90;;;1.00;;
32475;SDS011;18929;48.008;10.882;2022-07-29T04:04:23;6.80;;;1.20;;
32475;SDS011;18929;48.008;10.882;2022-07-29T04:06:51;4.68;;;1.00;;
32475;SDS011;18929;48.008;10.882;2022-07-29T04:09:17;4.88;;;1.02;;
32475;SDS011;18929;48.008;10.882;2022-07-29T04:14:17;7.20;;;1.33;;
32475;SDS011;18929;48.008;10.882;2022-07-29T04:16:45;4.88;;;1.08;;
32475;SDS011;18929;48.008;10.882;2022-07-29T04:19:12;5.97;;;1.30;;
32475;SDS011;18929;48.008;10.882;2022-07-29T04:21:39;7.40;;;1.30;;
32475;SDS011;18929;48.008;10.882;2022-07-29T04:24:07;6.55;;;1.63;;
32475;SDS011;18929;48.008;10.882;2022-07-29T04:26:34;5.35;;;1.92;;
32475;SDS011;18929;48.008;10.882;2022-07-29T04:29:01;3.85;;;1.50;;
32475;SDS011;18929;48.008;10.882;2022-07-29T04:31:31;2.47;;;1.40;;
32475;SDS011;18929;48.008;10.882;2022-07-29T04:33:58;5.15;;;1.55;;
32475;SDS011;18929;48.008;10.882;2022-07-29T04:36:25;7.40;;;1.63;;
32475;SDS011;18929;48.008;10.882;2022-07-29T04:38:52;8.35;;;1.63;;
32475;SDS011;18929;48.008;10.882;2022-07-29T04:41:19;7.55;;;1.50;;
32475;SDS011;18929;48.008;10.882;2022-07-29T04:43:46;6.80;;;1.50;;
32475;SDS011;18929;48.008;10.882;2022-07-29T04:46:13;8.57;;;1.42;;
32475;SDS011;18929;48.008;10.882;2022-07-29T04:48:41;6.07;;;1.63;;
32475;SDS011;18929;48.008;10.882;2022-07-29T04:51:08;5.40;;;1.15;;
32475;SDS011;18929;48.008;10.882;2022-07-29T04:53:35;4.93;;;1.10;;
32475;SDS011;18929;48.008;10.882;2022-07-29T04:56:02;5.03;;;1.30;;
32475;SDS011;18929;48.008;10.882;2022-07-29T04:58:29;6.10;;;1.00;;
32475;SDS011;18929;48.008;10.882;2022-07-29T05:00:57;5.65;;;1.20;;
32475;SDS011;18929;48.008;10.882;2022-07-29T05:03:23;4.15;;;1.13;;
32475;SDS011;18929;48.008;10.882;2022-07-29T05:05:52;3.40;;;1.02;;
32475;SDS011;18929;48.008;10.882;2022-07-29T05:08:19;5.65;;;1.02;;
32475;SDS011;18929;48.008;10.882;2022-07-29T05:10:46;4.82;;;1.10;;
32475;SDS011;18929;48.008;10.882;2022-07-29T05:13:13;3.80;;;0.95;;
32475;SDS011;18929;48.008;10.882;2022-07-29T05:15:40;7.15;;;1.17;;
32475;SDS011;18929;48.008;10.882;2022-07-29T05:18:07;2.65;;;0.95;;
32475;SDS011;18929;48.008;10.882;2022-07-29T05:20:34;3.65;;;0.90;;
32475;SDS011;18929;48.008;10.882;2022-07-29T05:23:02;1.85;;;1.00;;
32475;SDS011;18929;48.008;10.882;2022-07-29T05:25:29;6.35;;;1.02;;
32475;SDS011;18929;48.008;10.882;2022-07-29T05:27:56;1.55;;;0.90;;
32475;SDS011;18929;48.008;10.882;2022-07-29T05:30:24;4.65;;;1.08;;
32475;SDS011;18929;48.008;10.882;2022-07-29T05:32:51;3.40;;;0.80;;
32475;SDS011;18929;48.008;10.882;2022-07-29T05:35:18;3.05;;;1.02;;
32475;SDS011;18929;48.008;10.882;2022-07-29T05:37:45;4.53;;;0.90;;
32475;SDS011;18929;48.008;10.882;2022-07-29T05:40:13;2.15;;;0.93;;
32475;SDS011;18929;48.008;10.882;2022-07-29T05:42:40;2.47;;;1.27;;
32475;SDS011;18929;48.008;10.882;2022-07-29T05:45:08;1.33;;;0.90;;
32475;SDS011;18929;48.008;10.882;2022-07-29T05:47:35;2.45;;;0.90;;
32475;SDS011;18929;48.008;10.882;2022-07-29T05:50:02;4.00;;;1.33;;
32475;SDS011;18929;48.008;10.882;2022-07-29T05:52:30;4.65;;;1.35;;
32475;SDS011;18929;48.008;10.882;2022-07-29T05:54:57;2.22;;;1.05;;
32475;SDS011;18929;48.008;10.882;2022-07-29T05:57:29;4.15;;;1.02;;
32475;SDS011;18929;48.008;10.882;2022-07-29T05:59:56;4.57;;;1.05;;
32475;SDS011;18929;48.008;10.882;2022-07-29T06:02:23;2.92;;;0.90;;
32475;SDS011;18929;48.008;10.882;2022-07-29T06:04:50;1.80;;;0.93;;
32475;SDS011;18929;48.008;10.882;2022-07-29T06:07:17;4.38;;;0.98;;
32475;SDS011;18929;48.008;10.882;2022-07-29T06:09:44;2.35;;;0.82;;
32475;SDS011;18929;48.008;10.882;2022-07-29T06:12:11;1.80;;;1.00;;
32475;SDS011;18929;48.008;10.882;2022-07-29T06:14:39;4.03;;;1.10;;
32475;SDS011;18929;48.008;10.882;2022-07-29T06:17:06;2.42;;;1.08;;
32475;SDS011;18929;48.008;10.882;2022-07-29T06:19:33;4.90;;;1.33;;
32475;SDS011;18929;48.008;10.882;2022-07-29T06:22:01;2.47;;;1.27;;
32475;SDS011;18929;48.008;10.882;2022-07-29T06:24:29;4.75;;;1.38;;
32475;SDS011;18929;48.008;10.882;2022-07-29T06:26:56;4.65;;;1.30;;
32475;SDS011;18929;48.008;10.882;2022-07-29T06:29:23;7.82;;;1.30;;
32475;SDS011;18929;48.008;10.882;2022-07-29T06:31:51;9.23;;;1.63;;
32475;SDS011;18929;48.008;10.882;2022-07-29T06:34:18;8.57;;;1.63;;
32475;SDS011;18929;48.008;10.882;2022-07-29T06:36:45;5.35;;;1.50;;
32475;SDS011;18929;48.008;10.882;2022-07-29T06:39:12;7.45;;;1.50;;
32475;SDS011;18929;48.008;10.882;2022-07-29T06:41:39;8.77;;;1.50;;
32475;SDS011;18929;48.008;10.882;2022-07-29T06:44:06;4.75;;;1.70;;
32475;SDS011;18929;48.008;10.882;2022-07-29T06:46:34;4.95;;;1.92;;
32475;SDS011;18929;48.008;10.882;2022-07-29T06:49:03;4.07;;;1.80;;
32475;SDS011;18929;48.008;10.882;2022-07-29T06:51:30;5.65;;;1.73;;
32475;SDS011;18929;48.008;10.882;2022-07-29T06:53:57;4.13;;;1.50;;
32475;SDS011;18929;48.008;10.882;2022-07-29T06:56:24;3.30;;;1.20;;
32475;SDS011;18929;48.008;10.882;2022-07-29T06:58:51;4.38;;;1.65;;
32475;SDS011;18929;48.008;10.882;2022-07-29T07:01:18;3.20;;;1.30;;
32475;SDS011;18929;48.008;10.882;2022-07-29T07:03:45;2.78;;;1.40;;
32475;SDS011;18929;48.008;10.882;2022-07-29T07:06:14;4.78;;;1.70;;
32475;SDS011;18929;48.008;10.882;2022-07-29T07:08:41;2.80;;;1.48;;
32475;SDS011;18929;48.008;10.882;2022-07-29T07:11:08;2.35;;;1.60;;
32475;SDS011;18929;48.008;10.882;2022-07-29T07:13:35;3.95;;;1.67;;
32475;SDS011;18929;48.008;10.882;2022-07-29T07:16:02;2.55;;;1.23;;
32475;SDS011;18929;48.008;10.882;2022-07-29T07:18:30;4.35;;;1.33;;
32475;SDS011;18929;48.008;10.882;2022-07-29T07:20:57;3.17;;;1.50;;
32475;SDS011;18929;48.008;10.882;2022-07-29T07:23:26;6.53;;;1.70;;
32475;SDS011;18929;48.008;10.882;2022-07-29T07:25:53;2.42;;;1.40;;
32475;SDS011;18929;48.008;10.882;2022-07-29T07:28:20;3.35;;;1.58;;
32475;SDS011;18929;48.008;10.882;2022-07-29T07:30:47;4.07;;;1.65;;
32475;SDS011;18929;48.008;10.882;2022-07-29T07:33:14;5.60;;;1.65;;
32475;SDS011;18929;48.008;10.882;2022-07-29T07:35:41;3.05;;;1.48;;
32475;SDS011;18929;48.008;10.882;2022-07-29T07:38:09;1.70;;;1.20;;
32475;SDS011;18929;48.008;10.882;2022-07-29T07:40:37;7.22;;;1.40;;
32475;SDS011;18929;48.008;10.882;2022-07-29T07:43:04;3.47;;;1.60;;
32475;SDS011;18929;48.008;10.882;2022-07-29T07:45:31;2.45;;;1.50;;
32475;SDS011;18929;48.008;10.882;2022-07-29T07:47:58;3.47;;;1.42;;
32475;SDS011;18929;48.008;10.882;2022-07-29T07:50:26;4.97;;;1.40;;
32475;SDS011;18929;48.008;10.882;2022-07-29T07:52:54;2.83;;;1.30;;
32475;SDS011;18929;48.008;10.882;2022-07-29T07:55:22;3.80;;;1.52;;
32475;SDS011;18929;48.008;10.882;2022-07-29T07:57:51;2.92;;;1.30;;
32475;SDS011;18929;48.008;10.882;2022-07-29T08:00:19;2.90;;;1.45;;
32475;SDS011;18929;48.008;10.882;2022-07-29T08:02:46;2.22;;;1.40;;
32475;SDS011;18929;48.008;10.882;2022-07-29T08:05:13;2.25;;;1.70;;
32475;SDS011;18929;48.008;10.882;2022-07-29T08:07:42;3.60;;;2.10;;
32475;SDS011;18929;48.008;10.882;2022-07-29T08:10:10;2.67;;;1.60;;
32475;SDS011;18929;48.008;10.882;2022-07-29T08:12:37;2.33;;;1.33;;
32475;SDS011;18929;48.008;10.882;2022-07-29T08:15:06;2.80;;;1.55;;
32475;SDS011;18929;48.008;10.882;2022-07-29T08:17:34;2.20;;;1.42;;
32475;SDS011;18929;48.008;10.882;2022-07-29T08:20:01;2.53;;;1.48;;
32475;SDS011;18929;48.008;10.882;2022-07-29T08:22:29;2.63;;;1.67;;
32475;SDS011;18929;48.008;10.882;2022-07-29T08:24:56;2.25;;;1.52;;
32475;SDS011;18929;48.008;10.882;2022-07-29T08:27:23;1.83;;;1.27;;
32475;SDS011;18929;48.008;10.882;2022-07-29T08:29:51;3.42;;;1.60;;
32475;SDS011;18929;48.008;10.882;2022-07-29T08:32:19;3.30;;;1.67;;
32475;SDS011;18929;48.008;10.882;2022-07-29T08:34:46;4.55;;;1.90;;
32475;SDS011;18929;48.008;10.882;2022-07-29T08:37:13;3.25;;;1.63;;
32475;SDS011;18929;48.008;10.882;2022-07-29T08:39:40;3.53;;;1.35;;
32475;SDS011;18929;48.008;10.882;2022-07-29T08:42:07;1.80;;;1.20;;
32475;SDS011;18929;48.008;10.882;2022-07-29T08:44:35;1.55;;;1.25;;
32475;SDS011;18929;48.008;10.882;2022-07-29T08:47:03;2.88;;;1.40;;
32475;SDS011;18929;48.008;10.882;2022-07-29T08:49:32;1.60;;;1.30;;
32475;SDS011;18929;48.008;10.882;2022-07-29T08:52:00;2.05;;;1.40;;
32475;SDS011;18929;48.008;10.882;2022-07-29T08:54:27;3.05;;;1.35;;
32475;SDS011;18929;48.008;10.882;2022-07-29T08:56:55;2.75;;;1.40;;
32475;SDS011;18929;48.008;10.882;2022-07-29T08:59:24;2.30;;;1.30;;
32475;SDS011;18929;48.008;10.882;2022-07-29T09:01:53;4.70;;;1.45;;
32475;SDS011;18929;48.008;10.882;2022-07-29T09:04:24;2.58;;;1.38;;
32475;SDS011;18929;48.008;10.882;2022-07-29T09:06:57;1.77;;;1.30;;
32475;SDS011;18929;48.008;10.882;2022-07-29T09:09:30;3.40;;;1.40;;
32475;SDS011;18929;48.008;10.882;2022-07-29T09:11:58;1.85;;;1.30;;
32475;SDS011;18929;48.008;10.882;2022-07-29T09:14:25;1.98;;;1.48;;
32475;SDS011;18929;48.008;10.882;2022-07-29T09:16:53;3.53;;;1.48;;
32475;SDS011;18929;48.008;10.882;2022-07-29T09:19:22;2.65;;;1.67;;
32475;SDS011;18929;48.008;10.882;2022-07-29T09:21:51;2.20;;;1.38;;
32475;SDS011;18929;48.008;10.882;2022-07-29T09:24:27;2.45;;;1.42;;
32475;SDS011;18929;48.008;10.882;2022-07-29T09:27:08;3.20;;;1.27;;
32475;SDS011;18929;48.008;10.882;2022-07-29T09:29:37;3.30;;;1.45;;
32475;SDS011;18929;48.008;10.882;2022-07-29T09:32:06;2.20;;;1.17;;
32475;SDS011;18929;48.008;10.882;2022-07-29T09:34:34;2.67;;;1.40;;
32475;SDS011;18929;48.008;10.882;2022-07-29T09:37:02;1.80;;;1.30;;
32475;SDS011;18929;48.008;10.882;2022-07-29T09:39:32;2.70;;;1.83;;
32475;SDS011;18929;48.008;10.882;2022-07-29T09:42:01;1.40;;;1.20;;
32475;SDS011;18929;48.008;10.882;2022-07-29T09:47:18;3.65;;;1.75;;
32475;SDS011;18929;48.008;10.882;2022-07-29T09:49:50;2.08;;;1.40;;
32475;SDS011;18929;48.008;10.882;2022-07-29T09:52:19;4.60;;;1.70;;
32475;SDS011;18929;48.008;10.882;2022-07-29T09:54:48;2.00;;;1.42;;
32475;SDS011;18929;48.008;10.882;2022-07-29T09:57:22;3.42;;;1.58;;
32475;SDS011;18929;48.008;10.882;2022-07-29T09:59:56;2.55;;;1.42;;
32475;SDS011;18929;48.008;10.882;2022-07-29T10:02:27;3.67;;;1.73;;
32475;SDS011;18929;48.008;10.882;2022-07-29T10:04:56;4.25;;;1.55;;
32475;SDS011;18929;48.008;10.882;2022-07-29T10:07:23;2.92;;;1.55;;
32475;SDS011;18929;48.008;10.882;2022-07-29T10:09:53;2.33;;;1.55;;
32475;SDS011;18929;48.008;10.882;2022-07-29T10:12:22;2.10;;;1.60;;
32475;SDS011;18929;48.008;10.882;2022-07-29T10:14:50;2.78;;;1.80;;
32475;SDS011;18929;48.008;10.882;2022-07-29T10:17:18;3.42;;;1.80;;
32475;SDS011;18929;48.008;10.882;2022-07-29T10:19:45;3.45;;;1.85;;
32475;SDS011;18929;48.008;10.882;2022-07-29T10:22:13;2.90;;;1.77;;
32475;SDS011;18929;48.008;10.882;2022-07-29T10:24:41;4.22;;;1.75;;
32475;SDS011;18929;48.008;10.882;2022-07-29T10:27:09;3.80;;;1.92;;
32475;SDS011;18929;48.008;10.882;2022-07-29T10:29:36;7.78;;;2.10;;
32475;SDS011;18929;48.008;10.882;2022-07-29T10:32:08;4.00;;;1.73;;
32475;SDS011;18929;48.008;10.882;2022-07-29T10:34:50;4.10;;;2.10;;
32475;SDS011;18929;48.008;10.882;2022-07-29T10:37:37;7.35;;;2.40;;
32475;SDS011;18929;48.008;10.882;2022-07-29T10:40:21;3.42;;;1.73;;
32475;SDS011;18929;48.008;10.882;2022-07-29T10:45:44;4.25;;;2.10;;
32475;SDS011;18929;48.008;10.882;2022-07-29T10:48:12;3.50;;;2.20;;
32475;SDS011;18929;48.008;10.882;2022-07-29T10:50:53;2.92;;;1.88;;
32475;SDS011;18929;48.008;10.882;2022-07-29T10:53:22;3.15;;;1.85;;
32475;SDS011;18929;48.008;10.882;2022-07-29T10:55:50;2.85;;;1.85;;
32475;SDS011;18929;48.008;10.882;2022-07-29T10:58:20;4.15;;;2.00;;
32475;SDS011;18929;48.008;10.882;2022-07-29T11:00:48;2.90;;;1.90;;
32475;SDS011;18929;48.008;10.882;2022-07-29T11:06:09;3.03;;;2.17;;
32475;SDS011;18929;48.008;10.882;2022-07-29T11:08:35;2.67;;;2.03;;
32475;SDS011;18929;48.008;10.882;2022-07-29T11:14:06;4.00;;;2.00;;
32475;SDS011;18929;48.008;10.882;2022-07-29T11:19:28;1.85;;;1.40;;
32475;SDS011;18929;48.008;10.882;2022-07-29T11:21:55;1.98;;;1.55;;
32475;SDS011;18929;48.008;10.882;2022-07-29T11:24:23;2.13;;;1.55;;
32475;SDS011;18929;48.008;10.882;2022-07-29T11:29:48;2.58;;;1.50;;
32475;SDS011;18929;48.008;10.882;2022-07-29T11:32:17;3.30;;;1.40;;
32475;SDS011;18929;48.008;10.882;2022-07-29T11:34:45;2.72;;;1.67;;
32475;SDS011;18929;48.008;10.882;2022-07-29T11:37:13;3.65;;;1.50;;
32475;SDS011;18929;48.008;10.882;2022-07-29T11:39:45;3.40;;;1.10;;
32475;SDS011;18929;48.008;10.882;2022-07-29T11:45:24;1.50;;;1.27;;
32475;SDS011;18929;48.008;10.882;2022-07-29T11:47:57;1.42;;;1.25;;
32475;SDS011;18929;48.008;10.882;2022-07-29T11:53:11;3.05;;;1.23;;
32475;SDS011;18929;48.008;10.882;2022-07-29T11:55:39;4.15;;;1.40;;
32475;SDS011;18929;48.008;10.882;2022-07-29T11:58:07;1.88;;;1.35;;
32475;SDS011;18929;48.008;10.882;2022-07-29T12:00:36;1.75;;;1.20;;
32475;SDS011;18929;48.008;10.882;2022-07-29T12:03:06;2.10;;;1.30;;
32475;SDS011;18929;48.008;10.882;2022-07-29T12:05:38;2.35;;;1.20;;
32475;SDS011;18929;48.008;10.882;2022-07-29T12:08:10;1.80;;;1.20;;
32475;SDS011;18929;48.008;10.882;2022-07-29T12:10:39;2.20;;;1.10;;
32475;SDS011;18929;48.008;10.882;2022-07-29T12:13:07;1.92;;;1.10;;
32475;SDS011;18929;48.008;10.882;2022-07-29T12:15:36;2.75;;;1.20;;
32475;SDS011;18929;48.008;10.882;2022-07-29T12:18:16;2.88;;;1.27;;
32475;SDS011;18929;48.008;10.882;2022-07-29T12:20:45;2.70;;;1.40;;
32475;SDS011;18929;48.008;10.882;2022-07-29T12:23:13;2.00;;;1.10;;
32475;SDS011;18929;48.008;10.882;2022-07-29T12:25:42;2.97;;;1.20;;
32475;SDS011;18929;48.008;10.882;2022-07-29T12:28:10;3.05;;;1.40;;
32475;SDS011;18929;48.008;10.882;2022-07-29T12:30:41;2.47;;;1.23;;
32475;SDS011;18929;48.008;10.882;2022-07-29T12:33:10;2.42;;;1.38;;
32475;SDS011;18929;48.008;10.882;2022-07-29T12:35:38;4.05;;;1.50;;
32475;SDS011;18929;48.008;10.882;2022-07-29T12:38:05;1.90;;;1.27;;
32475;SDS011;18929;48.008;10.882;2022-07-29T12:40:33;2.38;;;1.48;;
32475;SDS011;18929;48.008;10.882;2022-07-29T12:43:07;2.22;;;1.27;;
32475;SDS011;18929;48.008;10.882;2022-07-29T12:45:35;1.60;;;1.20;;
32475;SDS011;18929;48.008;10.882;2022-07-29T12:48:05;2.35;;;1.67;;
32475;SDS011;18929;48.008;10.882;2022-07-29T12:50:34;2.58;;;1.20;;
32475;SDS011;18929;48.008;10.882;2022-07-29T12:53:08;3.58;;;2.10;;
32475;SDS011;18929;48.008;10.882;2022-07-29T12:55:40;2.70;;;1.50;;
32475;SDS011;18929;48.008;10.882;2022-07-29T12:58:09;2.75;;;1.40;;
32475;SDS011;18929;48.008;10.882;2022-07-29T13:00:36;3.58;;;1.60;;
32475;SDS011;18929;48.008;10.882;2022-07-29T13:03:04;4.10;;;1.30;;
32475;SDS011;18929;48.008;10.882;2022-07-29T13:05:41;3.40;;;1.35;;
32475;SDS011;18929;48.008;10.882;2022-07-29T13:08:10;2.83;;;1.35;;
32475;SDS011;18929;48.008;10.882;2022-07-29T13:10:38;9.25;;;4.53;;
32475;SDS011;18929;48.008;10.882;2022-07-29T13:13:06;2.92;;;1.50;;
32475;SDS011;18929;48.008;10.882;2022-07-29T13:15:34;4.20;;;1.45;;
32475;SDS011;18929;48.008;10.882;2022-07-29T13:18:02;3.20;;;1.67;;
32475;SDS011;18929;48.008;10.882;2022-07-29T13:20:31;3.50;;;1.65;;
32475;SDS011;18929;48.008;10.882;2022-07-29T13:22:59;1.98;;;1.50;;
32475;SDS011;18929;48.008;10.882;2022-07-29T13:25:31;2.00;;;1.30;;
32475;SDS011;18929;48.008;10.882;2022-07-29T13:27:59;3.65;;;1.50;;
32475;SDS011;18929;48.008;10.882;2022-07-29T13:30:26;2.67;;;1.45;;
32475;SDS011;18929;48.008;10.882;2022-07-29T13:32:54;3.47;;;1.73;;
32475;SDS011;18929;48.008;10.882;2022-07-29T13:35:21;3.22;;;1.60;;
32475;SDS011;18929;48.008;10.882;2022-07-29T13:37:49;5.20;;;1.45;;
32475;SDS011;18929;48.008;10.882;2022-07-29T13:40:17;6.03;;;1.75;;
32475;SDS011;18929;48.008;10.882;2022-07-29T13:42:44;3.03;;;1.63;;
32475;SDS011;18929;48.008;10.882;2022-07-29T13:45:11;2.85;;;1.63;;
32475;SDS011;18929;48.008;10.882;2022-07-29T13:47:39;2.70;;;1.60;;
32475;SDS011;18929;48.008;10.882;2022-07-29T13:50:07;3.63;;;1.48;;
32475;SDS011;18929;48.008;10.882;2022-07-29T13:52:35;3.90;;;1.60;;
32475;SDS011;18929;48.008;10.882;2022-07-29T13:55:05;3.47;;;1.33;;
32475;SDS011;18929;48.008;10.882;2022-07-29T13:57:33;3.20;;;1.42;;
32475;SDS011;18929;48.008;10.882;2022-07-29T14:00:00;3.38;;;1.35;;
32475;SDS011;18929;48.008;10.882;2022-07-29T14:02:27;5.40;;;1.60;;
32475;SDS011;18929;48.008;10.882;2022-07-29T14:04:54;4.65;;;1.40;;
32475;SDS011;18929;48.008;10.882;2022-07-29T14:07:22;5.03;;;1.52;;
32475;SDS011;18929;48.008;10.882;2022-07-29T14:09:49;4.15;;;1.30;;
32475;SDS011;18929;48.008;10.882;2022-07-29T14:12:17;4.22;;;1.20;;
32475;SDS011;18929;48.008;10.882;2022-07-29T14:14:44;1.63;;;1.23;;
32475;SDS011;18929;48.008;10.882;2022-07-29T14:17:11;3.25;;;1.40;;
32475;SDS011;18929;48.008;10.882;2022-07-29T14:19:38;2.80;;;1.60;;
32475;SDS011;18929;48.008;10.882;2022-07-29T14:22:06;1.48;;;1.25;;
32475;SDS011;18929;48.008;10.882;2022-07-29T14:24:34;2.70;;;1.20;;
32475;SDS011;18929;48.008;10.882;2022-07-29T14:27:01;3.25;;;1.38;;
32475;SDS011;18929;48.008;10.882;2022-07-29T14:29:29;2.67;;;1.20;;
32475;SDS011;18929;48.008;10.882;2022-07-29T14:31:56;2.28;;;1.48;;
32475;SDS011;18929;48.008;10.882;2022-07-29T14:34:23;2.30;;;1.25;;
32475;SDS011;18929;48.008;10.882;2022-07-29T14:36:51;3.60;;;1.42;;
32475;SDS011;18929;48.008;10.882;2022-07-29T14:39:20;3.10;;;1.30;;
32475;SDS011;18929;48.008;10.882;2022-07-29T14:41:48;2.22;;;1.13;;
32475;SDS011;18929;48.008;10.882;2022-07-29T14:44:16;2.72;;;1.15;;
32475;SDS011;18929;48.008;10.882;2022-07-29T14:46:44;3.55;;;1.55;;
32475;SDS011;18929;48.008;10.882;2022-07-29T14:49:11;3.20;;;1.10;;
32475;SDS011;18929;48.008;10.882;2022-07-29T14:51:38;1.40;;;1.00;;
32475;SDS011;18929;48.008;10.882;2022-07-29T14:54:05;1.90;;;1.48;;
32475;SDS011;18929;48.008;10.882;2022-07-29T14:56:32;2.15;;;1.20;;
32475;SDS011;18929;48.008;10.882;2022-07-29T14:58:59;2.13;;;1.20;;
32475;SDS011;18929;48.008;10.882;2022-07-29T15:01:26;2.78;;;1.30;;
32475;SDS011;18929;48.008;10.882;2022-07-29T15:03:55;3.00;;;1.30;;
32475;SDS011;18929;48.008;10.882;2022-07-29T15:06:22;1.85;;;1.20;;
32475;SDS011;18929;48.008;10.882;2022-07-29T15:08:49;3.92;;;1.52;;
32475;SDS011;18929;48.008;10.882;2022-07-29T15:11:16;2.10;;;1.05;;
32475;SDS011;18929;48.008;10.882;2022-07-29T15:13:43;1.33;;;1.05;;